NVIDIA Operating Margin 2006-2021 | NVDA

Current and historical operating margin for NVIDIA (NVDA) over the last 10 years. The current operating profit margin for NVIDIA as of January 31, 2021 is 30.67%.
NVIDIA Operating Margin Historical Data
Date TTM Revenue TTM Operating Income Operating Margin
2021-01-31 $16.68B $4.53B 27.18%
2020-10-31 $14.78B $4.02B 27.17%
2020-07-31 $13.07B $3.54B 27.13%
2020-04-30 $11.78B $3.46B 29.41%
2020-01-31 $10.92B $2.85B 26.07%
2019-10-31 $10.02B $2.15B 21.46%
2019-07-31 $10.19B $2.28B 22.40%
2019-04-30 $10.73B $2.87B 26.72%
2019-01-31 $11.72B $3.80B 32.47%
2018-10-31 $12.42B $4.58B 36.89%
2018-07-31 $11.88B $4.42B 37.21%
2018-04-30 $10.98B $3.95B 35.97%
2018-01-31 $9.71B $3.21B 33.05%
2017-10-31 $8.98B $2.87B 31.97%
2017-07-31 $8.34B $2.61B 31.33%
2017-04-30 $7.54B $2.24B 29.74%
2017-01-31 $6.91B $1.93B 27.99%
2016-10-31 $6.14B $1.45B 23.64%
2016-07-31 $5.44B $1.06B 19.43%
2016-04-30 $5.16B $0.82B 15.80%
2016-01-31 $5.01B $0.75B 14.91%
2015-10-31 $4.86B $0.73B 15.00%
2015-07-31 $4.78B $0.70B 14.58%
2015-04-30 $4.73B $0.78B 16.58%
2015-01-31 $4.68B $0.76B 16.21%
2014-10-31 $4.58B $0.69B 15.17%
2014-07-31 $4.40B $0.62B 14.12%
2014-04-30 $4.28B $0.57B 13.21%
2014-01-31 $4.13B $0.50B 12.03%
2013-10-31 $4.09B $0.51B 12.56%
2013-07-31 $4.24B $0.63B 14.73%
2013-04-30 $4.31B $0.66B 15.29%
2013-01-31 $4.28B $0.65B 15.16%
2012-10-31 $4.13B $0.59B 14.23%
2012-07-31 $3.99B $0.53B 13.34%
2012-04-30 $3.96B $0.57B 14.29%
2012-01-31 $4.00B $0.65B 16.21%
2011-10-31 $3.93B $0.71B 17.96%
2011-07-31 $3.71B $0.61B 16.53%
2011-04-30 $3.50B $0.26B 7.54%
2011-01-31 $3.54B $0.26B 7.23%
2010-10-31 $3.64B $0.21B 5.77%
2010-07-31 $3.70B $0.21B 5.79%
2010-04-30 $3.66B $0.28B 7.61%
2010-01-31 $3.33B $-0.10B -2.98%
2009-10-31 $2.83B $-0.41B -14.44%
2009-07-31 $2.82B $-0.46B -16.28%
2009-04-30 $2.94B $-0.50B -17.17%
2009-01-31 $3.43B $-0.07B -2.04%
2008-10-31 $4.15B $0.37B 8.85%
2008-07-31 $4.37B $0.56B 12.78%
2008-04-30 $4.41B $0.90B 20.38%
2008-01-31 $4.10B $0.84B 20.40%
2007-10-31 $3.77B $0.71B 18.89%
2007-07-31 $3.48B $0.58B 16.76%
2007-04-30 $3.23B $0.49B 15.28%
2007-01-31 $3.07B $0.46B 14.82%
2006-10-31 $2.83B $0.43B 15.19%
2006-07-31 $2.59B $0.38B 14.73%
2006-04-30 $2.47B $0.36B 14.67%
2006-01-31 $2.38B $0.34B 14.18%
2005-10-31 $2.31B $0.26B 11.40%
Sector Industry Market Cap Revenue
Computer and Technology Semiconductor - General $396.147B $16.675B
NVIDIA Corporation is the worldwide leader in graphics processors and media communications devices. The NVIDIA? Tesla? accelerated computing platform gives modern data centers the power to accelerate both artificial intelligence and high-performance computing workloads. NVIDIA? DGX? Systems are built on the new, revolutionary NVIDIA Volta? GPU platform. Powered by NVIDIA? Tesla? GPUs and NVIDIA NVLink?, the HGX reference architecture standardizes the design of data centers accelerating AI in the cloud-from autonomous driving and personalized healthcare to superhuman voice recognition. NVIDIA GPU Cloud (NGC) is a GPU-accelerated platform that runs everywhere. Data scientists and researchers can now rapidly build, train, and deploy neural network models to address some of the most complicated AI challenges. Their researchers operate as a think tank, accelerating advances in product technologies, including AI innovations like facial animations and light transport.
Stock Name Country Market Cap PE Ratio
Intel (INTC) United States $263.684B 12.19
Texas Instruments (TXN) United States $176.621B 32.15
STMicroelectronics (STM) Switzerland $35.520B 32.22
SUMCO CORP ADR (SUOPY) Japan $7.316B 30.83
Thk (THKLY) Japan $4.814B 0.00
Amtech Systems (ASYS) United States $0.156B 0.00